sensor_id;sensor_type;location;lat;lon;timestamp;temperature;humidity
34877;DHT22;21086;44.780;17.194;2023-07-22T00:00:24;20.90;1.00
34877;DHT22;21086;44.780;17.194;2023-07-22T00:02:52;21.00;1.00
34877;DHT22;21086;44.780;17.194;2023-07-22T00:05:19;21.00;1.00
34877;DHT22;21086;44.780;17.194;2023-07-22T00:07:50;20.90;1.00
34877;DHT22;21086;44.780;17.194;2023-07-22T00:10:18;21.00;1.00
34877;DHT22;21086;44.780;17.194;2023-07-22T00:12:45;21.10;1.00
34877;DHT22;21086;44.780;17.194;2023-07-22T00:15:12;21.10;1.00
34877;DHT22;21086;44.780;17.194;2023-07-22T00:17:40;21.10;1.00
34877;DHT22;21086;44.780;17.194;2023-07-22T00:20:08;21.20;1.00
34877;DHT22;21086;44.780;17.194;2023-07-22T00:22:38;21.10;1.00
34877;DHT22;21086;44.780;17.194;2023-07-22T00:25:10;21.10;1.00
34877;DHT22;21086;44.780;17.194;2023-07-22T00:27:39;20.90;1.00
34877;DHT22;21086;44.780;17.194;2023-07-22T00:30:07;20.70;1.00
34877;DHT22;21086;44.780;17.194;2023-07-22T00:32:35;20.80;1.00
34877;DHT22;21086;44.780;17.194;2023-07-22T00:35:05;20.90;1.00
34877;DHT22;21086;44.780;17.194;2023-07-22T00:37:32;20.90;1.00
34877;DHT22;21086;44.780;17.194;2023-07-22T00:40:01;20.90;1.00
34877;DHT22;21086;44.780;17.194;2023-07-22T00:42:30;20.90;1.00
34877;DHT22;21086;44.780;17.194;2023-07-22T00:44:57;20.90;1.00
34877;DHT22;21086;44.780;17.194;2023-07-22T00:47:25;20.90;1.00
34877;DHT22;21086;44.780;17.194;2023-07-22T00:49:53;20.90;1.00
34877;DHT22;21086;44.780;17.194;2023-07-22T00:52:20;21.20;1.00
34877;DHT22;21086;44.780;17.194;2023-07-22T00:54:47;21.90;1.00
34877;DHT22;21086;44.780;17.194;2023-07-22T00:57:15;21.60;1.00
34877;DHT22;21086;44.780;17.194;2023-07-22T00:59:43;21.40;1.00
34877;DHT22;21086;44.780;17.194;2023-07-22T01:02:10;21.30;1.00
34877;DHT22;21086;44.780;17.194;2023-07-22T01:04:37;21.10;1.00
34877;DHT22;21086;44.780;17.194;2023-07-22T01:07:05;21.00;1.00
34877;DHT22;21086;44.780;17.194;2023-07-22T01:09:37;21.10;1.00
34877;DHT22;21086;44.780;17.194;2023-07-22T01:17:28;21.10;1.00
34877;DHT22;21086;44.780;17.194;2023-07-22T01:19:56;21.10;1.00
34877;DHT22;21086;44.780;17.194;2023-07-22T01:37:08;21.00;1.00
34877;DHT22;21086;44.780;17.194;2023-07-22T01:42:17;21.30;1.00
34877;DHT22;21086;44.780;17.194;2023-07-22T01:44:45;21.00;1.00
34877;DHT22;21086;44.780;17.194;2023-07-22T01:47:12;20.90;1.00
34877;DHT22;21086;44.780;17.194;2023-07-22T01:49:39;21.20;1.00
34877;DHT22;21086;44.780;17.194;2023-07-22T01:52:07;21.30;1.00
34877;DHT22;21086;44.780;17.194;2023-07-22T01:54:34;21.10;1.00
34877;DHT22;21086;44.780;17.194;2023-07-22T01:57:02;21.10;1.00
34877;DHT22;21086;44.780;17.194;2023-07-22T01:59:29;21.10;1.00
34877;DHT22;21086;44.780;17.194;2023-07-22T02:01:56;21.20;1.00
34877;DHT22;21086;44.780;17.194;2023-07-22T02:04:23;21.10;1.00
34877;DHT22;21086;44.780;17.194;2023-07-22T02:06:50;21.10;1.00
34877;DHT22;21086;44.780;17.194;2023-07-22T02:09:18;21.00;1.00
34877;DHT22;21086;44.780;17.194;2023-07-22T02:11:45;20.90;1.00
34877;DHT22;21086;44.780;17.194;2023-07-22T02:14:12;20.90;1.00
34877;DHT22;21086;44.780;17.194;2023-07-22T02:16:39;20.90;1.00
34877;DHT22;21086;44.780;17.194;2023-07-22T02:19:07;20.80;1.00
34877;DHT22;21086;44.780;17.194;2023-07-22T02:21:34;20.90;1.00
34877;DHT22;21086;44.780;17.194;2023-07-22T02:24:01;21.00;1.00
34877;DHT22;21086;44.780;17.194;2023-07-22T02:26:28;21.00;1.00
34877;DHT22;21086;44.780;17.194;2023-07-22T02:28:56;21.00;1.00
34877;DHT22;21086;44.780;17.194;2023-07-22T02:31:23;20.90;1.00
34877;DHT22;21086;44.780;17.194;2023-07-22T02:33:50;20.90;1.00
34877;DHT22;21086;44.780;17.194;2023-07-22T02:36:17;21.10;1.00
34877;DHT22;21086;44.780;17.194;2023-07-22T02:38:44;21.10;1.00
34877;DHT22;21086;44.780;17.194;2023-07-22T02:41:12;21.00;1.00
34877;DHT22;21086;44.780;17.194;2023-07-22T02:43:39;20.90;1.00
34877;DHT22;21086;44.780;17.194;2023-07-22T02:46:07;20.80;1.00
34877;DHT22;21086;44.780;17.194;2023-07-22T02:48:35;20.80;1.00
34877;DHT22;21086;44.780;17.194;2023-07-22T02:51:07;20.90;1.00
34877;DHT22;21086;44.780;17.194;2023-07-22T02:53:36;20.80;1.00
34877;DHT22;21086;44.780;17.194;2023-07-22T02:56:05;20.80;1.00
34877;DHT22;21086;44.780;17.194;2023-07-22T02:58:39;20.70;1.00
34877;DHT22;21086;44.780;17.194;2023-07-22T03:01:11;20.80;1.00
34877;DHT22;21086;44.780;17.194;2023-07-22T03:03:40;20.80;1.00
34877;DHT22;21086;44.780;17.194;2023-07-22T03:06:09;20.70;1.00
34877;DHT22;21086;44.780;17.194;2023-07-22T03:08:40;20.50;1.00
34877;DHT22;21086;44.780;17.194;2023-07-22T03:11:08;20.40;1.00
34877;DHT22;21086;44.780;17.194;2023-07-22T03:13:37;20.40;1.00
34877;DHT22;21086;44.780;17.194;2023-07-22T03:16:06;20.40;1.00
34877;DHT22;21086;44.780;17.194;2023-07-22T03:18:39;20.30;1.00
34877;DHT22;21086;44.780;17.194;2023-07-22T03:21:10;20.40;1.00
34877;DHT22;21086;44.780;17.194;2023-07-22T03:23:39;20.30;1.00
34877;DHT22;21086;44.780;17.194;2023-07-22T03:26:08;20.30;1.00
34877;DHT22;21086;44.780;17.194;2023-07-22T03:35:00;20.40;1.00
34877;DHT22;21086;44.780;17.194;2023-07-22T03:43:18;20.40;1.00
34877;DHT22;21086;44.780;17.194;2023-07-22T03:45:47;20.40;1.00
34877;DHT22;21086;44.780;17.194;2023-07-22T03:48:15;20.40;1.00
34877;DHT22;21086;44.780;17.194;2023-07-22T03:50:45;20.40;1.00
34877;DHT22;21086;44.780;17.194;2023-07-22T03:53:15;20.20;1.00
34877;DHT22;21086;44.780;17.194;2023-07-22T03:55:44;20.50;1.00
34877;DHT22;21086;44.780;17.194;2023-07-22T03:58:12;20.70;1.00
34877;DHT22;21086;44.780;17.194;2023-07-22T04:00:40;20.70;1.00
34877;DHT22;21086;44.780;17.194;2023-07-22T04:03:07;20.70;1.00
34877;DHT22;21086;44.780;17.194;2023-07-22T04:05:34;20.80;1.00
34877;DHT22;21086;44.780;17.194;2023-07-22T04:08:02;20.90;1.00
34877;DHT22;21086;44.780;17.194;2023-07-22T04:10:29;20.80;1.00
34877;DHT22;21086;44.780;17.194;2023-07-22T04:12:56;20.90;1.00
34877;DHT22;21086;44.780;17.194;2023-07-22T04:15:24;20.90;1.00
34877;DHT22;21086;44.780;17.194;2023-07-22T04:17:52;20.90;1.00
34877;DHT22;21086;44.780;17.194;2023-07-22T04:20:20;21.20;1.00
34877;DHT22;21086;44.780;17.194;2023-07-22T04:25:22;20.70;1.00
34877;DHT22;21086;44.780;17.194;2023-07-22T04:36:37;21.40;1.00
34877;DHT22;21086;44.780;17.194;2023-07-22T04:39:05;21.00;1.00
34877;DHT22;21086;44.780;17.194;2023-07-22T04:41:33;21.50;1.00
34877;DHT22;21086;44.780;17.194;2023-07-22T04:47:12;21.20;1.00
34877;DHT22;21086;44.780;17.194;2023-07-22T04:49:40;21.00;1.00
34877;DHT22;21086;44.780;17.194;2023-07-22T04:52:07;21.30;1.00
34877;DHT22;21086;44.780;17.194;2023-07-22T04:54:35;21.40;1.00
34877;DHT22;21086;44.780;17.194;2023-07-22T04:57:02;21.30;1.00
34877;DHT22;21086;44.780;17.194;2023-07-22T04:59:30;21.30;1.00
34877;DHT22;21086;44.780;17.194;2023-07-22T05:01:57;22.30;1.00
34877;DHT22;21086;44.780;17.194;2023-07-22T05:04:26;21.40;1.00
34877;DHT22;21086;44.780;17.194;2023-07-22T05:06:53;21.50;1.00
34877;DHT22;21086;44.780;17.194;2023-07-22T05:09:20;21.40;1.00
34877;DHT22;21086;44.780;17.194;2023-07-22T05:11:47;21.40;1.00
34877;DHT22;21086;44.780;17.194;2023-07-22T05:14:14;21.40;1.00
34877;DHT22;21086;44.780;17.194;2023-07-22T05:16:41;21.30;1.00
34877;DHT22;21086;44.780;17.194;2023-07-22T05:19:08;21.30;1.00
34877;DHT22;21086;44.780;17.194;2023-07-22T05:21:36;21.20;1.00
34877;DHT22;21086;44.780;17.194;2023-07-22T05:24:03;21.10;1.00
34877;DHT22;21086;44.780;17.194;2023-07-22T05:26:30;21.20;1.00
34877;DHT22;21086;44.780;17.194;2023-07-22T05:28:58;21.20;1.00
34877;DHT22;21086;44.780;17.194;2023-07-22T05:31:25;21.30;1.00
34877;DHT22;21086;44.780;17.194;2023-07-22T05:33:52;21.50;1.00
34877;DHT22;21086;44.780;17.194;2023-07-22T05:36:19;21.80;1.00
34877;DHT22;21086;44.780;17.194;2023-07-22T05:38:46;21.90;1.00
34877;DHT22;21086;44.780;17.194;2023-07-22T05:41:14;22.10;1.00
34877;DHT22;21086;44.780;17.194;2023-07-22T05:43:41;22.30;1.00
34877;DHT22;21086;44.780;17.194;2023-07-22T05:46:09;22.50;1.00
34877;DHT22;21086;44.780;17.194;2023-07-22T05:48:36;22.50;1.00
34877;DHT22;21086;44.780;17.194;2023-07-22T05:51:03;22.70;1.00
34877;DHT22;21086;44.780;17.194;2023-07-22T05:53:30;22.90;1.00
34877;DHT22;21086;44.780;17.194;2023-07-22T05:55:58;23.00;1.00
34877;DHT22;21086;44.780;17.194;2023-07-22T05:58:25;23.10;1.00
34877;DHT22;21086;44.780;17.194;2023-07-22T06:00:54;23.20;1.00
34877;DHT22;21086;44.780;17.194;2023-07-22T06:03:22;23.00;1.00
34877;DHT22;21086;44.780;17.194;2023-07-22T06:05:49;22.90;1.00
34877;DHT22;21086;44.780;17.194;2023-07-22T06:08:16;22.90;1.00
34877;DHT22;21086;44.780;17.194;2023-07-22T06:10:44;22.80;1.00
34877;DHT22;21086;44.780;17.194;2023-07-22T06:13:11;22.90;1.00
34877;DHT22;21086;44.780;17.194;2023-07-22T06:15:38;22.90;1.00
34877;DHT22;21086;44.780;17.194;2023-07-22T06:18:05;23.10;1.00
34877;DHT22;21086;44.780;17.194;2023-07-22T06:20:35;23.10;1.00
34877;DHT22;21086;44.780;17.194;2023-07-22T06:23:03;23.20;1.00
34877;DHT22;21086;44.780;17.194;2023-07-22T06:25:30;23.20;1.00
34877;DHT22;21086;44.780;17.194;2023-07-22T06:27:57;23.10;1.00
34877;DHT22;21086;44.780;17.194;2023-07-22T06:30:25;23.10;1.00
34877;DHT22;21086;44.780;17.194;2023-07-22T06:32:52;23.20;1.00
34877;DHT22;21086;44.780;17.194;2023-07-22T06:35:19;23.30;1.00
34877;DHT22;21086;44.780;17.194;2023-07-22T06:37:46;23.40;1.00
34877;DHT22;21086;44.780;17.194;2023-07-22T06:40:14;23.40;1.00
34877;DHT22;21086;44.780;17.194;2023-07-22T06:42:47;23.60;1.00
34877;DHT22;21086;44.780;17.194;2023-07-22T06:45:14;23.90;1.00
34877;DHT22;21086;44.780;17.194;2023-07-22T06:47:41;24.00;1.00
34877;DHT22;21086;44.780;17.194;2023-07-22T06:50:08;24.10;1.00
34877;DHT22;21086;44.780;17.194;2023-07-22T06:52:35;24.40;1.00
34877;DHT22;21086;44.780;17.194;2023-07-22T06:55:02;24.50;1.00
34877;DHT22;21086;44.780;17.194;2023-07-22T06:57:29;24.50;1.00
34877;DHT22;21086;44.780;17.194;2023-07-22T06:59:56;24.60;1.00
34877;DHT22;21086;44.780;17.194;2023-07-22T07:02:23;24.70;1.00
34877;DHT22;21086;44.780;17.194;2023-07-22T07:04:51;24.80;1.00
34877;DHT22;21086;44.780;17.194;2023-07-22T07:07:18;24.70;1.00
34877;DHT22;21086;44.780;17.194;2023-07-22T07:09:46;24.80;1.00
34877;DHT22;21086;44.780;17.194;2023-07-22T07:12:12;24.80;1.00
34877;DHT22;21086;44.780;17.194;2023-07-22T07:14:40;24.80;1.00
34877;DHT22;21086;44.780;17.194;2023-07-22T07:17:07;24.90;1.00
34877;DHT22;21086;44.780;17.194;2023-07-22T07:19:34;25.00;1.00
34877;DHT22;21086;44.780;17.194;2023-07-22T07:22:01;25.00;1.00
34877;DHT22;21086;44.780;17.194;2023-07-22T07:24:28;25.10;1.00
34877;DHT22;21086;44.780;17.194;2023-07-22T07:26:55;25.20;1.00
34877;DHT22;21086;44.780;17.194;2023-07-22T07:29:23;25.20;1.00
34877;DHT22;21086;44.780;17.194;2023-07-22T07:32:10;25.30;1.00
34877;DHT22;21086;44.780;17.194;2023-07-22T07:34:37;25.50;1.00
34877;DHT22;21086;44.780;17.194;2023-07-22T07:37:06;25.60;1.00
34877;DHT22;21086;44.780;17.194;2023-07-22T07:39:36;25.70;1.00
34877;DHT22;21086;44.780;17.194;2023-07-22T07:42:04;25.80;1.00
34877;DHT22;21086;44.780;17.194;2023-07-22T07:44:31;25.80;1.00
34877;DHT22;21086;44.780;17.194;2023-07-22T07:46:58;26.00;1.00
34877;DHT22;21086;44.780;17.194;2023-07-22T07:49:25;26.20;1.00
34877;DHT22;21086;44.780;17.194;2023-07-22T07:51:52;26.40;1.00
34877;DHT22;21086;44.780;17.194;2023-07-22T07:54:20;26.60;1.00
34877;DHT22;21086;44.780;17.194;2023-07-22T07:56:47;26.70;1.00
34877;DHT22;21086;44.780;17.194;2023-07-22T07:59:14;26.70;1.00
34877;DHT22;21086;44.780;17.194;2023-07-22T08:01:41;26.50;1.00
34877;DHT22;21086;44.780;17.194;2023-07-22T08:04:09;26.40;1.00
34877;DHT22;21086;44.780;17.194;2023-07-22T08:06:38;26.40;1.00
34877;DHT22;21086;44.780;17.194;2023-07-22T08:09:05;26.50;1.00
34877;DHT22;21086;44.780;17.194;2023-07-22T08:11:33;26.50;1.00
34877;DHT22;21086;44.780;17.194;2023-07-22T08:14:03;26.50;1.00
34877;DHT22;21086;44.780;17.194;2023-07-22T08:16:35;26.40;1.00
34877;DHT22;21086;44.780;17.194;2023-07-22T08:19:02;26.70;1.00
34877;DHT22;21086;44.780;17.194;2023-07-22T08:21:29;26.80;1.00
34877;DHT22;21086;44.780;17.194;2023-07-22T08:23:56;26.80;1.00
34877;DHT22;21086;44.780;17.194;2023-07-22T08:26:24;26.90;1.00
34877;DHT22;21086;44.780;17.194;2023-07-22T08:28:51;26.90;1.00
34877;DHT22;21086;44.780;17.194;2023-07-22T08:31:19;27.10;1.00
34877;DHT22;21086;44.780;17.194;2023-07-22T08:33:46;27.10;99.90
34877;DHT22;21086;44.780;17.194;2023-07-22T08:36:13;27.20;99.90
34877;DHT22;21086;44.780;17.194;2023-07-22T08:38:40;27.20;99.90
34877;DHT22;21086;44.780;17.194;2023-07-22T08:41:07;27.20;99.90
34877;DHT22;21086;44.780;17.194;2023-07-22T08:43:38;27.30;99.90
34877;DHT22;21086;44.780;17.194;2023-07-22T08:46:06;27.20;99.90
34877;DHT22;21086;44.780;17.194;2023-07-22T08:48:34;27.20;99.90
34877;DHT22;21086;44.780;17.194;2023-07-22T08:51:18;27.40;99.90
34877;DHT22;21086;44.780;17.194;2023-07-22T08:53:46;27.50;99.90
34877;DHT22;21086;44.780;17.194;2023-07-22T08:56:34;27.50;99.90
34877;DHT22;21086;44.780;17.194;2023-07-22T08:59:03;27.40;99.90
34877;DHT22;21086;44.780;17.194;2023-07-22T09:01:32;27.50;99.90
34877;DHT22;21086;44.780;17.194;2023-07-22T09:04:00;27.70;99.90
34877;DHT22;21086;44.780;17.194;2023-07-22T09:06:28;27.80;99.90
34877;DHT22;21086;44.780;17.194;2023-07-22T09:08:56;27.60;99.90
34877;DHT22;21086;44.780;17.194;2023-07-22T09:11:26;27.40;99.90
34877;DHT22;21086;44.780;17.194;2023-07-22T09:13:53;27.40;99.90
34877;DHT22;21086;44.780;17.194;2023-07-22T09:16:21;27.30;99.90
34877;DHT22;21086;44.780;17.194;2023-07-22T09:18:49;27.30;99.90
34877;DHT22;21086;44.780;17.194;2023-07-22T09:21:16;27.40;99.90
34877;DHT22;21086;44.780;17.194;2023-07-22T09:23:43;27.70;99.90
34877;DHT22;21086;44.780;17.194;2023-07-22T09:26:15;28.10;99.90
34877;DHT22;21086;44.780;17.194;2023-07-22T09:28:55;28.40;99.90
34877;DHT22;21086;44.780;17.194;2023-07-22T09:31:25;28.70;99.90
34877;DHT22;21086;44.780;17.194;2023-07-22T09:33:53;28.70;99.90
34877;DHT22;21086;44.780;17.194;2023-07-22T09:36:22;28.80;99.90
34877;DHT22;21086;44.780;17.194;2023-07-22T09:39:00;28.50;99.90
34877;DHT22;21086;44.780;17.194;2023-07-22T09:41:30;28.60;99.90
34877;DHT22;21086;44.780;17.194;2023-07-22T09:44:01;28.80;99.90
34877;DHT22;21086;44.780;17.194;2023-07-22T09:46:32;28.90;99.90
34877;DHT22;21086;44.780;17.194;2023-07-22T09:49:03;29.00;99.90
34877;DHT22;21086;44.780;17.194;2023-07-22T09:51:35;28.90;99.90
34877;DHT22;21086;44.780;17.194;2023-07-22T09:54:19;28.80;99.90
34877;DHT22;21086;44.780;17.194;2023-07-22T09:56:49;28.80;99.90
34877;DHT22;21086;44.780;17.194;2023-07-22T09:59:19;28.80;99.90
34877;DHT22;21086;44.780;17.194;2023-07-22T10:01:50;29.00;99.90
34877;DHT22;21086;44.780;17.194;2023-07-22T10:04:20;29.10;99.90
34877;DHT22;21086;44.780;17.194;2023-07-22T10:06:49;29.40;99.90
34877;DHT22;21086;44.780;17.194;2023-07-22T10:09:16;29.40;99.90
34877;DHT22;21086;44.780;17.194;2023-07-22T10:11:44;29.10;99.90
34877;DHT22;21086;44.780;17.194;2023-07-22T10:14:11;29.00;99.90
34877;DHT22;21086;44.780;17.194;2023-07-22T10:16:41;29.30;99.90
34877;DHT22;21086;44.780;17.194;2023-07-22T10:19:09;29.30;99.90
34877;DHT22;21086;44.780;17.194;2023-07-22T10:21:37;29.30;99.90
34877;DHT22;21086;44.780;17.194;2023-07-22T10:24:05;29.50;99.90
34877;DHT22;21086;44.780;17.194;2023-07-22T10:26:34;29.60;99.90
34877;DHT22;21086;44.780;17.194;2023-07-22T10:29:13;29.70;99.90
34877;DHT22;21086;44.780;17.194;2023-07-22T10:31:41;29.60;99.90
34877;DHT22;21086;44.780;17.194;2023-07-22T10:34:08;29.60;99.90
34877;DHT22;21086;44.780;17.194;2023-07-22T10:36:35;29.70;99.90
34877;DHT22;21086;44.780;17.194;2023-07-22T10:39:03;30.00;99.90
34877;DHT22;21086;44.780;17.194;2023-07-22T10:41:32;30.30;99.90
34877;DHT22;21086;44.780;17.194;2023-07-22T10:44:00;30.30;99.90
34877;DHT22;21086;44.780;17.194;2023-07-22T10:46:36;30.40;99.90
34877;DHT22;21086;44.780;17.194;2023-07-22T10:49:16;30.50;99.90
34877;DHT22;21086;44.780;17.194;2023-07-22T10:51:51;30.60;99.90
34877;DHT22;21086;44.780;17.194;2023-07-22T10:54:36;30.70;99.90
34877;DHT22;21086;44.780;17.194;2023-07-22T10:59:50;30.60;99.90
34877;DHT22;21086;44.780;17.194;2023-07-22T11:02:29;30.30;99.90
34877;DHT22;21086;44.780;17.194;2023-07-22T11:04:57;30.50;99.90
34877;DHT22;21086;44.780;17.194;2023-07-22T11:07:42;30.80;99.90
34877;DHT22;21086;44.780;17.194;2023-07-22T11:10:14;31.00;99.90
34877;DHT22;21086;44.780;17.194;2023-07-22T11:12:44;31.10;99.90
34877;DHT22;21086;44.780;17.194;2023-07-22T11:15:15;31.10;99.90
34877;DHT22;21086;44.780;17.194;2023-07-22T11:17:42;31.00;99.90
34877;DHT22;21086;44.780;17.194;2023-07-22T11:20:09;31.20;99.90
34877;DHT22;21086;44.780;17.194;2023-07-22T11:22:40;31.10;99.90
34877;DHT22;21086;44.780;17.194;2023-07-22T11:25:08;31.30;99.90
34877;DHT22;21086;44.780;17.194;2023-07-22T11:27:35;31.20;99.90
34877;DHT22;21086;44.780;17.194;2023-07-22T11:30:03;31.20;99.90
34877;DHT22;21086;44.780;17.194;2023-07-22T11:32:32;31.50;99.90
34877;DHT22;21086;44.780;17.194;2023-07-22T11:34:59;31.60;99.90
34877;DHT22;21086;44.780;17.194;2023-07-22T11:37:29;31.50;99.90
34877;DHT22;21086;44.780;17.194;2023-07-22T11:40:03;31.40;99.90
34877;DHT22;21086;44.780;17.194;2023-07-22T11:42:30;31.80;99.90
34877;DHT22;21086;44.780;17.194;2023-07-22T11:44:59;32.00;99.90
34877;DHT22;21086;44.780;17.194;2023-07-22T11:47:30;32.20;99.90
34877;DHT22;21086;44.780;17.194;2023-07-22T11:50:00;32.30;99.90
34877;DHT22;21086;44.780;17.194;2023-07-22T11:52:27;32.30;99.90
34877;DHT22;21086;44.780;17.194;2023-07-22T11:54:59;32.20;99.90
34877;DHT22;21086;44.780;17.194;2023-07-22T11:57:28;32.00;99.90
34877;DHT22;21086;44.780;17.194;2023-07-22T11:59:58;32.10;99.90
34877;DHT22;21086;44.780;17.194;2023-07-22T12:02:27;32.40;99.90
34877;DHT22;21086;44.780;17.194;2023-07-22T12:05:03;32.60;99.90
34877;DHT22;21086;44.780;17.194;2023-07-22T12:07:38;32.90;99.90
34877;DHT22;21086;44.780;17.194;2023-07-22T12:10:07;32.90;99.90
34877;DHT22;21086;44.780;17.194;2023-07-22T12:12:43;32.60;99.90
34877;DHT22;21086;44.780;17.194;2023-07-22T12:15:18;32.20;99.90
34877;DHT22;21086;44.780;17.194;2023-07-22T12:20:18;31.80;99.90
34877;DHT22;21086;44.780;17.194;2023-07-22T12:22:48;32.20;99.90
34877;DHT22;21086;44.780;17.194;2023-07-22T12:25:15;32.90;99.90
34877;DHT22;21086;44.780;17.194;2023-07-22T12:27:44;33.50;99.90
34877;DHT22;21086;44.780;17.194;2023-07-22T12:30:12;34.10;99.90
34877;DHT22;21086;44.780;17.194;2023-07-22T12:32:42;34.10;99.90
34877;DHT22;21086;44.780;17.194;2023-07-22T12:35:09;34.20;99.90
34877;DHT22;21086;44.780;17.194;2023-07-22T12:37:36;34.10;99.90
34877;DHT22;21086;44.780;17.194;2023-07-22T12:40:05;34.40;99.90
34877;DHT22;21086;44.780;17.194;2023-07-22T12:42:36;34.40;99.90
34877;DHT22;21086;44.780;17.194;2023-07-22T12:45:07;34.30;99.90
34877;DHT22;21086;44.780;17.194;2023-07-22T12:47:35;34.30;99.90
34877;DHT22;21086;44.780;17.194;2023-07-22T12:50:02;35.10;99.90
34877;DHT22;21086;44.780;17.194;2023-07-22T12:52:30;35.90;99.90
34877;DHT22;21086;44.780;17.194;2023-07-22T12:54:57;36.50;99.90
34877;DHT22;21086;44.780;17.194;2023-07-22T12:57:24;36.60;99.90
34877;DHT22;21086;44.780;17.194;2023-07-22T12:59:54;35.90;99.90
34877;DHT22;21086;44.780;17.194;2023-07-22T13:02:28;34.80;99.90
34877;DHT22;21086;44.780;17.194;2023-07-22T13:04:55;34.50;99.90
34877;DHT22;21086;44.780;17.194;2023-07-22T13:07:23;34.30;99.90
34877;DHT22;21086;44.780;17.194;2023-07-22T13:09:55;34.30;99.90
34877;DHT22;21086;44.780;17.194;2023-07-22T13:12:28;33.60;99.90
34877;DHT22;21086;44.780;17.194;2023-07-22T13:14:55;33.20;99.90
34877;DHT22;21086;44.780;17.194;2023-07-22T13:17:22;32.90;99.90
34877;DHT22;21086;44.780;17.194;2023-07-22T13:19:49;33.30;99.90
34877;DHT22;21086;44.780;17.194;2023-07-22T13:22:16;34.80;99.90
34877;DHT22;21086;44.780;17.194;2023-07-22T13:24:44;37.00;99.90
34877;DHT22;21086;44.780;17.194;2023-07-22T13:27:12;38.30;99.90
34877;DHT22;21086;44.780;17.194;2023-07-22T13:29:39;37.60;99.90
34877;DHT22;21086;44.780;17.194;2023-07-22T13:32:07;36.60;99.90
34877;DHT22;21086;44.780;17.194;2023-07-22T13:34:34;35.80;99.90
34877;DHT22;21086;44.780;17.194;2023-07-22T13:37:01;34.70;99.90
34877;DHT22;21086;44.780;17.194;2023-07-22T13:39:29;33.80;99.90
34877;DHT22;21086;44.780;17.194;2023-07-22T13:42:01;33.10;99.90
34877;DHT22;21086;44.780;17.194;2023-07-22T13:44:28;32.60;99.90
34877;DHT22;21086;44.780;17.194;2023-07-22T13:46:55;32.80;99.90
34877;DHT22;21086;44.780;17.194;2023-07-22T13:49:22;33.00;99.90
34877;DHT22;21086;44.780;17.194;2023-07-22T13:51:49;32.90;99.90
34877;DHT22;21086;44.780;17.194;2023-07-22T13:54:17;33.20;99.90
34877;DHT22;21086;44.780;17.194;2023-07-22T13:56:44;33.50;99.90
34877;DHT22;21086;44.780;17.194;2023-07-22T13:59:14;34.80;99.90
34877;DHT22;21086;44.780;17.194;2023-07-22T14:01:40;35.20;99.90
34877;DHT22;21086;44.780;17.194;2023-07-22T14:04:10;35.90;99.90
34877;DHT22;21086;44.780;17.194;2023-07-22T14:06:37;35.80;99.90
34877;DHT22;21086;44.780;17.194;2023-07-22T14:09:05;35.40;99.90
34877;DHT22;21086;44.780;17.194;2023-07-22T14:11:32;34.70;99.90
34877;DHT22;21086;44.780;17.194;2023-07-22T14:14:01;33.80;99.90
34877;DHT22;21086;44.780;17.194;2023-07-22T14:16:28;33.00;99.90
34877;DHT22;21086;44.780;17.194;2023-07-22T14:18:56;32.40;99.90
34877;DHT22;21086;44.780;17.194;2023-07-22T14:21:23;32.00;99.90
34877;DHT22;21086;44.780;17.194;2023-07-22T14:23:50;32.10;99.90
34877;DHT22;21086;44.780;17.194;2023-07-22T14:26:20;32.20;99.90
34877;DHT22;21086;44.780;17.194;2023-07-22T14:28:47;32.40;99.90
34877;DHT22;21086;44.780;17.194;2023-07-22T14:31:14;33.00;99.90
34877;DHT22;21086;44.780;17.194;2023-07-22T14:33:41;33.80;99.90
34877;DHT22;21086;44.780;17.194;2023-07-22T14:36:08;35.30;99.90
34877;DHT22;21086;44.780;17.194;2023-07-22T14:38:35;37.50;99.90
34877;DHT22;21086;44.780;17.194;2023-07-22T14:41:02;38.10;99.90
34877;DHT22;21086;44.780;17.194;2023-07-22T14:43:29;37.20;99.90
34877;DHT22;21086;44.780;17.194;2023-07-22T14:45:57;35.90;99.90
34877;DHT22;21086;44.780;17.194;2023-07-22T14:48:24;34.80;99.90
34877;DHT22;21086;44.780;17.194;2023-07-22T14:50:51;34.10;99.90
34877;DHT22;21086;44.780;17.194;2023-07-22T14:53:18;33.50;99.90
34877;DHT22;21086;44.780;17.194;2023-07-22T14:55:45;32.60;99.90
34877;DHT22;21086;44.780;17.194;2023-07-22T14:58:13;32.00;99.90
34877;DHT22;21086;44.780;17.194;2023-07-22T15:00:40;31.50;99.90
34877;DHT22;21086;44.780;17.194;2023-07-22T15:03:08;31.10;99.90
34877;DHT22;21086;44.780;17.194;2023-07-22T15:05:35;31.80;99.90
34877;DHT22;21086;44.780;17.194;2023-07-22T15:08:03;34.90;99.90
34877;DHT22;21086;44.780;17.194;2023-07-22T15:10:30;37.20;99.90
34877;DHT22;21086;44.780;17.194;2023-07-22T15:12:57;36.40;99.90
34877;DHT22;21086;44.780;17.194;2023-07-22T15:15:24;35.20;99.90
34877;DHT22;21086;44.780;17.194;2023-07-22T15:17:52;33.50;99.90
34877;DHT22;21086;44.780;17.194;2023-07-22T15:20:19;32.30;99.90
34877;DHT22;21086;44.780;17.194;2023-07-22T15:22:46;31.60;99.90
34877;DHT22;21086;44.780;17.194;2023-07-22T15:25:13;31.10;99.90
34877;DHT22;21086;44.780;17.194;2023-07-22T15:27:40;30.80;99.90
34877;DHT22;21086;44.780;17.194;2023-07-22T15:30:08;30.40;99.90
34877;DHT22;21086;44.780;17.194;2023-07-22T15:32:35;30.40;99.90
34877;DHT22;21086;44.780;17.194;2023-07-22T15:35:03;30.30;99.90
34877;DHT22;21086;44.780;17.194;2023-07-22T15:37:30;30.30;99.90
34877;DHT22;21086;44.780;17.194;2023-07-22T15:39:57;30.30;99.90
34877;DHT22;21086;44.780;17.194;2023-07-22T15:42:24;30.30;99.90
34877;DHT22;21086;44.780;17.194;2023-07-22T15:44:51;30.20;99.90
34877;DHT22;21086;44.780;17.194;2023-07-22T15:47:18;30.10;99.90
34877;DHT22;21086;44.780;17.194;2023-07-22T15:49:45;29.80;99.90
34877;DHT22;21086;44.780;17.194;2023-07-22T15:52:12;29.60;99.90
34877;DHT22;21086;44.780;17.194;2023-07-22T15:54:39;29.50;99.90
34877;DHT22;21086;44.780;17.194;2023-07-22T15:57:07;29.50;99.90
34877;DHT22;21086;44.780;17.194;2023-07-22T15:59:33;29.40;99.90
34877;DHT22;21086;44.780;17.194;2023-07-22T16:02:01;29.30;99.90
34877;DHT22;21086;44.780;17.194;2023-07-22T16:04:28;29.20;99.90
34877;DHT22;21086;44.780;17.194;2023-07-22T16:06:55;29.10;99.90
34877;DHT22;21086;44.780;17.194;2023-07-22T16:09:22;28.90;99.90
34877;DHT22;21086;44.780;17.194;2023-07-22T16:11:49;28.80;99.90
34877;DHT22;21086;44.780;17.194;2023-07-22T16:14:17;28.60;99.90
34877;DHT22;21086;44.780;17.194;2023-07-22T16:16:45;28.40;99.90
34877;DHT22;21086;44.780;17.194;2023-07-22T16:19:12;28.30;99.90
34877;DHT22;21086;44.780;17.194;2023-07-22T16:21:39;28.30;99.90
34877;DHT22;21086;44.780;17.194;2023-07-22T16:24:06;28.20;99.90